LIPE/BLQ METAR and TAF weather

Enter ICAO airport designator
Station Type Date Time Source
LIPE METAR 2022/06/26 06:50 UTC NOAA

LIPE 260650Z 25004KT 210V300 CAVOK 26/11 Q1015


Station Type Date Time Source
LIPE Decoded METAR 2022/06/26 06:50 UTC NOAA

Bologna / Borgo Panigale, Italy (LIPE) 44-32N 011-18E 49M
Jun 26, 2022 - 02:50 AM EDT / 2022.06.26 0650 UTC
Wind: from the WSW (250 degrees) at 5 MPH (4 KT) (direction variable):0
Visibility: greater than 7 mile(s):0
Temperature: 78 F (26 C)
Dew Point: 51 F (11 C)
Relative Humidity: 39%
Pressure (altimeter): 29.97 in. Hg (1015 hPa)
ob: LIPE 260650Z 25004KT 210V300 CAVOK 26/11 Q1015
cycle: 7

Station Type Date Time Source
LIPE TAF 2022/06/26 06:21 UTC NOAA

TAF LIPE 260500Z 2606/2706 VRB06KT CAVOK
BECMG 2614/2616 11010KT
BECMG 2617/2619 VRB05KT

Example: see airport list